sensor_id;sensor_type;location;lat;lon;timestamp;P1;durP1;ratioP1;P2;durP2;ratioP2
41061;SDS011;26812;42.662;23.352;2022-08-05T00:00:59;7.35;;;5.63;;
41061;SDS011;26812;42.662;23.352;2022-08-05T00:03:24;5.70;;;5.10;;
41061;SDS011;26812;42.662;23.352;2022-08-05T00:05:49;6.60;;;5.28;;
41061;SDS011;26812;42.662;23.352;2022-08-05T00:08:15;6.75;;;6.05;;
41061;SDS011;26812;42.662;23.352;2022-08-05T00:10:40;8.98;;;6.28;;
41061;SDS011;26812;42.662;23.352;2022-08-05T00:13:05;6.30;;;5.70;;
41061;SDS011;26812;42.662;23.352;2022-08-05T00:15:31;8.55;;;6.10;;
41061;SDS011;26812;42.662;23.352;2022-08-05T00:17:56;6.35;;;5.63;;
41061;SDS011;26812;42.662;23.352;2022-08-05T00:20:22;6.78;;;6.07;;
41061;SDS011;26812;42.662;23.352;2022-08-05T00:22:47;6.88;;;6.07;;
41061;SDS011;26812;42.662;23.352;2022-08-05T00:25:13;6.28;;;5.75;;
41061;SDS011;26812;42.662;23.352;2022-08-05T00:27:38;9.00;;;6.00;;
41061;SDS011;26812;42.662;23.352;2022-08-05T00:30:04;7.05;;;6.35;;
41061;SDS011;26812;42.662;23.352;2022-08-05T00:32:30;9.43;;;6.00;;
41061;SDS011;26812;42.662;23.352;2022-08-05T00:34:55;7.50;;;6.57;;
41061;SDS011;26812;42.662;23.352;2022-08-05T00:37:20;8.73;;;6.60;;
41061;SDS011;26812;42.662;23.352;2022-08-05T00:39:46;7.90;;;6.50;;
41061;SDS011;26812;42.662;23.352;2022-08-05T00:42:11;7.30;;;6.57;;
41061;SDS011;26812;42.662;23.352;2022-08-05T00:44:37;9.10;;;6.88;;
41061;SDS011;26812;42.662;23.352;2022-08-05T00:47:02;7.55;;;6.72;;
41061;SDS011;26812;42.662;23.352;2022-08-05T00:49:27;8.80;;;6.30;;
41061;SDS011;26812;42.662;23.352;2022-08-05T00:51:53;9.05;;;6.40;;
41061;SDS011;26812;42.662;23.352;2022-08-05T00:54:18;8.90;;;6.43;;
41061;SDS011;26812;42.662;23.352;2022-08-05T00:56:44;8.43;;;5.95;;
41061;SDS011;26812;42.662;23.352;2022-08-05T00:59:10;7.88;;;6.65;;
41061;SDS011;26812;42.662;23.352;2022-08-05T01:01:35;7.80;;;6.75;;
41061;SDS011;26812;42.662;23.352;2022-08-05T01:04:01;7.82;;;6.38;;
41061;SDS011;26812;42.662;23.352;2022-08-05T01:06:27;6.78;;;6.05;;
41061;SDS011;26812;42.662;23.352;2022-08-05T01:08:52;8.57;;;6.30;;
41061;SDS011;26812;42.662;23.352;2022-08-05T01:11:19;6.55;;;5.93;;
41061;SDS011;26812;42.662;23.352;2022-08-05T01:16:13;7.05;;;6.35;;
41061;SDS011;26812;42.662;23.352;2022-08-05T01:19:04;9.48;;;5.82;;
41061;SDS011;26812;42.662;23.352;2022-08-05T01:27:45;8.38;;;5.05;;
41061;SDS011;26812;42.662;23.352;2022-08-05T01:30:23;7.25;;;5.88;;
41061;SDS011;26812;42.662;23.352;2022-08-05T01:32:52;6.20;;;5.55;;
41061;SDS011;26812;42.662;23.352;2022-08-05T01:35:24;8.35;;;5.88;;
41061;SDS011;26812;42.662;23.352;2022-08-05T01:37:53;6.47;;;5.75;;
41061;SDS011;26812;42.662;23.352;2022-08-05T01:40:22;7.22;;;5.57;;
41061;SDS011;26812;42.662;23.352;2022-08-05T01:42:50;6.90;;;5.95;;
41061;SDS011;26812;42.662;23.352;2022-08-05T01:45:17;6.10;;;5.30;;
41061;SDS011;26812;42.662;23.352;2022-08-05T01:47:45;6.13;;;5.53;;
41061;SDS011;26812;42.662;23.352;2022-08-05T01:50:15;8.23;;;5.78;;
41061;SDS011;26812;42.662;23.352;2022-08-05T01:52:45;6.40;;;5.32;;
41061;SDS011;26812;42.662;23.352;2022-08-05T01:55:12;6.60;;;6.00;;
41061;SDS011;26812;42.662;23.352;2022-08-05T01:57:42;7.07;;;5.60;;
41061;SDS011;26812;42.662;23.352;2022-08-05T02:00:10;7.22;;;5.95;;
41061;SDS011;26812;42.662;23.352;2022-08-05T02:02:37;6.25;;;5.55;;
41061;SDS011;26812;42.662;23.352;2022-08-05T02:05:08;5.93;;;5.32;;
41061;SDS011;26812;42.662;23.352;2022-08-05T02:07:36;6.78;;;5.68;;
41061;SDS011;26812;42.662;23.352;2022-08-05T02:10:03;5.93;;;5.43;;
41061;SDS011;26812;42.662;23.352;2022-08-05T02:18:14;6.30;;;5.55;;
41061;SDS011;26812;42.662;23.352;2022-08-05T02:20:48;6.03;;;5.43;;
41061;SDS011;26812;42.662;23.352;2022-08-05T02:23:19;6.03;;;5.15;;
41061;SDS011;26812;42.662;23.352;2022-08-05T02:25:48;8.85;;;6.10;;
41061;SDS011;26812;42.662;23.352;2022-08-05T02:28:18;6.70;;;4.97;;
41061;SDS011;26812;42.662;23.352;2022-08-05T02:30:50;7.47;;;5.03;;
41061;SDS011;26812;42.662;23.352;2022-08-05T02:33:22;8.07;;;6.03;;
41061;SDS011;26812;42.662;23.352;2022-08-05T02:35:49;6.25;;;5.60;;
41061;SDS011;26812;42.662;23.352;2022-08-05T02:38:17;6.20;;;5.50;;
41061;SDS011;26812;42.662;23.352;2022-08-05T02:40:43;5.55;;;5.05;;
41061;SDS011;26812;42.662;23.352;2022-08-05T02:43:10;5.95;;;5.35;;
41061;SDS011;26812;42.662;23.352;2022-08-05T02:45:37;7.03;;;5.28;;
41061;SDS011;26812;42.662;23.352;2022-08-05T02:48:05;6.10;;;5.13;;
41061;SDS011;26812;42.662;23.352;2022-08-05T02:50:32;5.88;;;5.40;;
41061;SDS011;26812;42.662;23.352;2022-08-05T02:52:59;5.97;;;5.40;;
41061;SDS011;26812;42.662;23.352;2022-08-05T02:55:25;7.70;;;5.80;;
41061;SDS011;26812;42.662;23.352;2022-08-05T02:57:54;6.13;;;5.32;;
41061;SDS011;26812;42.662;23.352;2022-08-05T03:00:20;5.53;;;4.97;;
41061;SDS011;26812;42.662;23.352;2022-08-05T03:02:46;6.43;;;5.18;;
41061;SDS011;26812;42.662;23.352;2022-08-05T03:05:12;6.25;;;5.45;;
41061;SDS011;26812;42.662;23.352;2022-08-05T03:07:39;7.03;;;6.30;;
41061;SDS011;26812;42.662;23.352;2022-08-05T03:10:06;7.32;;;5.30;;
41061;SDS011;26812;42.662;23.352;2022-08-05T03:12:37;6.10;;;5.28;;
41061;SDS011;26812;42.662;23.352;2022-08-05T03:15:04;6.35;;;5.75;;
41061;SDS011;26812;42.662;23.352;2022-08-05T03:17:31;6.47;;;4.90;;
41061;SDS011;26812;42.662;23.352;2022-08-05T03:19:57;8.05;;;5.50;;
41061;SDS011;26812;42.662;23.352;2022-08-05T03:22:22;5.70;;;5.18;;
41061;SDS011;26812;42.662;23.352;2022-08-05T03:24:48;7.30;;;6.35;;
41061;SDS011;26812;42.662;23.352;2022-08-05T03:27:15;8.27;;;6.00;;
41061;SDS011;26812;42.662;23.352;2022-08-05T03:29:41;6.90;;;6.30;;
41061;SDS011;26812;42.662;23.352;2022-08-05T03:32:07;9.30;;;6.45;;
41061;SDS011;26812;42.662;23.352;2022-08-05T03:34:33;8.75;;;6.38;;
41061;SDS011;26812;42.662;23.352;2022-08-05T03:37:00;7.72;;;6.07;;
41061;SDS011;26812;42.662;23.352;2022-08-05T03:39:27;9.68;;;7.00;;
41061;SDS011;26812;42.662;23.352;2022-08-05T03:41:53;7.82;;;6.85;;
41061;SDS011;26812;42.662;23.352;2022-08-05T03:44:19;6.20;;;5.68;;
41061;SDS011;26812;42.662;23.352;2022-08-05T03:46:45;6.57;;;5.57;;
41061;SDS011;26812;42.662;23.352;2022-08-05T03:49:10;8.90;;;6.65;;
41061;SDS011;26812;42.662;23.352;2022-08-05T03:54:30;6.90;;;6.10;;
41061;SDS011;26812;42.662;23.352;2022-08-05T03:56:59;7.75;;;7.00;;
41061;SDS011;26812;42.662;23.352;2022-08-05T03:59:30;9.30;;;7.07;;
41061;SDS011;26812;42.662;23.352;2022-08-05T04:01:59;8.60;;;6.82;;
41061;SDS011;26812;42.662;23.352;2022-08-05T04:04:26;7.35;;;6.65;;
41061;SDS011;26812;42.662;23.352;2022-08-05T04:06:54;8.05;;;6.82;;
41061;SDS011;26812;42.662;23.352;2022-08-05T04:09:20;7.63;;;6.82;;
41061;SDS011;26812;42.662;23.352;2022-08-05T04:11:47;9.70;;;6.80;;
41061;SDS011;26812;42.662;23.352;2022-08-05T04:14:13;7.65;;;6.85;;
41061;SDS011;26812;42.662;23.352;2022-08-05T04:16:40;8.00;;;7.20;;
41061;SDS011;26812;42.662;23.352;2022-08-05T04:19:05;8.55;;;7.72;;
41061;SDS011;26812;42.662;23.352;2022-08-05T04:21:36;9.10;;;7.60;;
41061;SDS011;26812;42.662;23.352;2022-08-05T04:24:02;9.88;;;7.82;;
41061;SDS011;26812;42.662;23.352;2022-08-05T04:26:29;9.02;;;7.85;;
41061;SDS011;26812;42.662;23.352;2022-08-05T04:28:54;11.82;;;8.50;;
41061;SDS011;26812;42.662;23.352;2022-08-05T04:31:20;7.78;;;7.03;;
41061;SDS011;26812;42.662;23.352;2022-08-05T04:33:45;11.63;;;7.68;;
41061;SDS011;26812;42.662;23.352;2022-08-05T04:36:11;8.30;;;7.50;;
41061;SDS011;26812;42.662;23.352;2022-08-05T04:38:38;7.65;;;6.95;;
41061;SDS011;26812;42.662;23.352;2022-08-05T04:41:03;8.18;;;7.43;;
41061;SDS011;26812;42.662;23.352;2022-08-05T04:43:29;8.77;;;7.15;;
41061;SDS011;26812;42.662;23.352;2022-08-05T04:45:55;8.38;;;7.50;;
41061;SDS011;26812;42.662;23.352;2022-08-05T04:48:20;7.75;;;7.05;;
41061;SDS011;26812;42.662;23.352;2022-08-05T04:50:46;9.38;;;7.13;;
41061;SDS011;26812;42.662;23.352;2022-08-05T04:53:13;8.10;;;7.25;;
41061;SDS011;26812;42.662;23.352;2022-08-05T04:55:40;8.57;;;6.75;;
41061;SDS011;26812;42.662;23.352;2022-08-05T04:58:07;8.20;;;7.30;;
41061;SDS011;26812;42.662;23.352;2022-08-05T05:00:34;8.20;;;7.38;;
41061;SDS011;26812;42.662;23.352;2022-08-05T05:03:01;10.98;;;6.70;;
41061;SDS011;26812;42.662;23.352;2022-08-05T05:05:27;9.52;;;7.72;;
41061;SDS011;26812;42.662;23.352;2022-08-05T05:07:54;7.63;;;6.93;;
41061;SDS011;26812;42.662;23.352;2022-08-05T05:10:27;8.50;;;6.85;;
41061;SDS011;26812;42.662;23.352;2022-08-05T05:12:56;7.55;;;6.60;;
41061;SDS011;26812;42.662;23.352;2022-08-05T05:15:22;7.40;;;6.20;;
41061;SDS011;26812;42.662;23.352;2022-08-05T05:17:48;10.82;;;7.30;;
41061;SDS011;26812;42.662;23.352;2022-08-05T05:20:13;12.07;;;7.38;;
41061;SDS011;26812;42.662;23.352;2022-08-05T05:22:39;7.40;;;6.50;;
41061;SDS011;26812;42.662;23.352;2022-08-05T05:25:05;7.07;;;6.35;;
41061;SDS011;26812;42.662;23.352;2022-08-05T05:27:33;15.52;;;8.85;;
41061;SDS011;26812;42.662;23.352;2022-08-05T05:29:59;10.40;;;8.18;;
41061;SDS011;26812;42.662;23.352;2022-08-05T05:32:25;10.32;;;7.43;;
41061;SDS011;26812;42.662;23.352;2022-08-05T05:34:50;8.40;;;6.97;;
41061;SDS011;26812;42.662;23.352;2022-08-05T05:37:16;8.30;;;7.38;;
41061;SDS011;26812;42.662;23.352;2022-08-05T05:39:41;8.05;;;7.35;;
41061;SDS011;26812;42.662;23.352;2022-08-05T05:42:07;8.15;;;7.30;;
41061;SDS011;26812;42.662;23.352;2022-08-05T05:44:34;11.50;;;9.02;;
41061;SDS011;26812;42.662;23.352;2022-08-05T05:46:59;12.73;;;10.05;;
41061;SDS011;26812;42.662;23.352;2022-08-05T05:49:25;10.95;;;9.85;;
41061;SDS011;26812;42.662;23.352;2022-08-05T05:51:50;9.57;;;7.82;;
41061;SDS011;26812;42.662;23.352;2022-08-05T05:54:16;8.50;;;7.35;;
41061;SDS011;26812;42.662;23.352;2022-08-05T05:56:42;8.43;;;7.05;;
41061;SDS011;26812;42.662;23.352;2022-08-05T05:59:07;9.68;;;7.55;;
41061;SDS011;26812;42.662;23.352;2022-08-05T06:01:33;8.95;;;8.05;;
41061;SDS011;26812;42.662;23.352;2022-08-05T06:04:00;9.15;;;8.10;;
41061;SDS011;26812;42.662;23.352;2022-08-05T06:06:25;10.85;;;8.70;;
41061;SDS011;26812;42.662;23.352;2022-08-05T06:08:51;10.45;;;8.18;;
41061;SDS011;26812;42.662;23.352;2022-08-05T06:11:16;11.88;;;8.75;;
41061;SDS011;26812;42.662;23.352;2022-08-05T06:13:41;9.48;;;8.02;;
41061;SDS011;26812;42.662;23.352;2022-08-05T06:16:07;8.90;;;7.22;;
41061;SDS011;26812;42.662;23.352;2022-08-05T06:18:32;8.55;;;7.18;;
41061;SDS011;26812;42.662;23.352;2022-08-05T06:20:58;12.43;;;6.93;;
41061;SDS011;26812;42.662;23.352;2022-08-05T06:23:24;12.00;;;6.78;;
41061;SDS011;26812;42.662;23.352;2022-08-05T06:25:49;7.38;;;6.30;;
41061;SDS011;26812;42.662;23.352;2022-08-05T06:28:15;6.80;;;5.90;;
41061;SDS011;26812;42.662;23.352;2022-08-05T06:30:40;7.80;;;5.45;;
41061;SDS011;26812;42.662;23.352;2022-08-05T06:33:06;5.97;;;5.40;;
41061;SDS011;26812;42.662;23.352;2022-08-05T06:35:32;8.40;;;6.50;;
41061;SDS011;26812;42.662;23.352;2022-08-05T06:37:58;6.15;;;5.55;;
41061;SDS011;26812;42.662;23.352;2022-08-05T06:40:23;7.53;;;6.45;;
41061;SDS011;26812;42.662;23.352;2022-08-05T06:42:49;8.05;;;6.18;;
41061;SDS011;26812;42.662;23.352;2022-08-05T06:45:14;6.63;;;6.03;;
41061;SDS011;26812;42.662;23.352;2022-08-05T06:47:40;6.82;;;6.13;;
41061;SDS011;26812;42.662;23.352;2022-08-05T06:50:05;7.53;;;6.78;;
41061;SDS011;26812;42.662;23.352;2022-08-05T06:52:31;7.15;;;6.00;;
41061;SDS011;26812;42.662;23.352;2022-08-05T06:54:56;6.95;;;6.25;;
41061;SDS011;26812;42.662;23.352;2022-08-05T06:57:22;9.55;;;6.18;;
41061;SDS011;26812;42.662;23.352;2022-08-05T06:59:47;10.45;;;5.80;;
41061;SDS011;26812;42.662;23.352;2022-08-05T07:02:12;7.40;;;5.82;;
41061;SDS011;26812;42.662;23.352;2022-08-05T07:04:38;7.25;;;6.25;;
41061;SDS011;26812;42.662;23.352;2022-08-05T07:07:03;8.32;;;5.93;;
41061;SDS011;26812;42.662;23.352;2022-08-05T07:09:29;10.93;;;6.28;;
41061;SDS011;26812;42.662;23.352;2022-08-05T07:11:54;9.30;;;5.97;;
41061;SDS011;26812;42.662;23.352;2022-08-05T07:14:20;6.70;;;5.97;;
41061;SDS011;26812;42.662;23.352;2022-08-05T07:17:04;6.53;;;5.28;;
41061;SDS011;26812;42.662;23.352;2022-08-05T07:19:29;6.78;;;5.72;;
41061;SDS011;26812;42.662;23.352;2022-08-05T07:21:55;5.78;;;5.22;;
41061;SDS011;26812;42.662;23.352;2022-08-05T07:24:21;7.45;;;5.53;;
41061;SDS011;26812;42.662;23.352;2022-08-05T07:26:47;9.15;;;5.90;;
41061;SDS011;26812;42.662;23.352;2022-08-05T07:29:18;8.32;;;5.22;;
41061;SDS011;26812;42.662;23.352;2022-08-05T07:31:46;10.52;;;6.20;;
41061;SDS011;26812;42.662;23.352;2022-08-05T07:34:12;8.55;;;5.72;;
41061;SDS011;26812;42.662;23.352;2022-08-05T07:36:46;7.93;;;5.63;;
41061;SDS011;26812;42.662;23.352;2022-08-05T07:39:12;6.85;;;5.28;;
41061;SDS011;26812;42.662;23.352;2022-08-05T07:41:37;6.05;;;5.38;;
41061;SDS011;26812;42.662;23.352;2022-08-05T07:44:03;6.60;;;5.25;;
41061;SDS011;26812;42.662;23.352;2022-08-05T07:46:31;6.30;;;5.28;;
41061;SDS011;26812;42.662;23.352;2022-08-05T07:48:57;8.85;;;6.13;;
41061;SDS011;26812;42.662;23.352;2022-08-05T07:51:27;10.68;;;5.80;;
41061;SDS011;26812;42.662;23.352;2022-08-05T07:53:55;8.38;;;5.10;;
41061;SDS011;26812;42.662;23.352;2022-08-05T07:56:21;7.35;;;5.57;;
41061;SDS011;26812;42.662;23.352;2022-08-05T07:58:46;6.20;;;4.93;;
41061;SDS011;26812;42.662;23.352;2022-08-05T08:01:12;6.90;;;5.22;;
41061;SDS011;26812;42.662;23.352;2022-08-05T08:03:38;8.07;;;5.07;;
41061;SDS011;26812;42.662;23.352;2022-08-05T08:06:04;6.88;;;5.25;;
41061;SDS011;26812;42.662;23.352;2022-08-05T08:08:30;7.95;;;4.85;;
41061;SDS011;26812;42.662;23.352;2022-08-05T08:10:55;5.45;;;4.97;;
41061;SDS011;26812;42.662;23.352;2022-08-05T08:13:20;6.63;;;5.25;;
41061;SDS011;26812;42.662;23.352;2022-08-05T08:15:46;6.57;;;4.78;;
41061;SDS011;26812;42.662;23.352;2022-08-05T08:18:12;6.25;;;5.28;;
41061;SDS011;26812;42.662;23.352;2022-08-05T08:20:37;5.55;;;5.05;;
41061;SDS011;26812;42.662;23.352;2022-08-05T08:23:03;6.53;;;5.25;;
41061;SDS011;26812;42.662;23.352;2022-08-05T08:25:28;6.50;;;5.13;;
41061;SDS011;26812;42.662;23.352;2022-08-05T08:27:54;6.63;;;5.05;;
41061;SDS011;26812;42.662;23.352;2022-08-05T08:30:20;5.57;;;5.07;;
41061;SDS011;26812;42.662;23.352;2022-08-05T08:32:46;6.63;;;5.15;;
41061;SDS011;26812;42.662;23.352;2022-08-05T08:35:12;6.30;;;4.88;;
41061;SDS011;26812;42.662;23.352;2022-08-05T08:37:37;5.03;;;4.60;;
41061;SDS011;26812;42.662;23.352;2022-08-05T08:40:03;9.07;;;6.25;;
41061;SDS011;26812;42.662;23.352;2022-08-05T08:42:29;11.55;;;5.15;;
41061;SDS011;26812;42.662;23.352;2022-08-05T08:44:56;7.72;;;5.03;;
41061;SDS011;26812;42.662;23.352;2022-08-05T08:47:25;6.18;;;4.50;;
41061;SDS011;26812;42.662;23.352;2022-08-05T08:49:52;5.07;;;4.65;;
41061;SDS011;26812;42.662;23.352;2022-08-05T08:52:24;9.15;;;5.10;;
41061;SDS011;26812;42.662;23.352;2022-08-05T08:54:53;7.60;;;5.20;;
41061;SDS011;26812;42.662;23.352;2022-08-05T08:57:19;5.50;;;4.55;;
41061;SDS011;26812;42.662;23.352;2022-08-05T08:59:45;6.68;;;4.18;;
41061;SDS011;26812;42.662;23.352;2022-08-05T09:02:12;5.60;;;3.72;;
41061;SDS011;26812;42.662;23.352;2022-08-05T09:04:38;7.03;;;4.80;;
41061;SDS011;26812;42.662;23.352;2022-08-05T09:07:04;4.10;;;3.70;;
41061;SDS011;26812;42.662;23.352;2022-08-05T09:09:31;8.50;;;4.60;;
41061;SDS011;26812;42.662;23.352;2022-08-05T09:11:58;6.18;;;3.72;;
41061;SDS011;26812;42.662;23.352;2022-08-05T09:14:23;4.28;;;3.85;;
41061;SDS011;26812;42.662;23.352;2022-08-05T09:16:50;4.28;;;3.85;;
41061;SDS011;26812;42.662;23.352;2022-08-05T09:19:16;5.53;;;3.63;;
41061;SDS011;26812;42.662;23.352;2022-08-05T09:21:41;5.53;;;4.22;;
41061;SDS011;26812;42.662;23.352;2022-08-05T09:24:07;3.83;;;3.42;;
41061;SDS011;26812;42.662;23.352;2022-08-05T09:26:34;4.55;;;3.83;;
41061;SDS011;26812;42.662;23.352;2022-08-05T09:29:00;5.65;;;3.05;;
41061;SDS011;26812;42.662;23.352;2022-08-05T09:31:29;2.95;;;2.63;;
41061;SDS011;26812;42.662;23.352;2022-08-05T09:33:59;3.45;;;3.15;;
41061;SDS011;26812;42.662;23.352;2022-08-05T09:36:39;4.47;;;2.90;;
41061;SDS011;26812;42.662;23.352;2022-08-05T09:39:06;4.72;;;3.88;;
41061;SDS011;26812;42.662;23.352;2022-08-05T09:41:34;5.10;;;3.15;;
41061;SDS011;26812;42.662;23.352;2022-08-05T09:44:31;5.45;;;3.03;;
41061;SDS011;26812;42.662;23.352;2022-08-05T09:52:33;3.05;;;2.75;;
41061;SDS011;26812;42.662;23.352;2022-08-05T09:57:40;2.88;;;2.67;;
41061;SDS011;26812;42.662;23.352;2022-08-05T10:00:11;4.10;;;2.65;;
41061;SDS011;26812;42.662;23.352;2022-08-05T10:02:44;3.42;;;3.08;;
41061;SDS011;26812;42.662;23.352;2022-08-05T10:05:20;4.72;;;2.85;;
41061;SDS011;26812;42.662;23.352;2022-08-05T10:07:52;3.42;;;3.05;;
41061;SDS011;26812;42.662;23.352;2022-08-05T10:10:21;4.68;;;2.88;;
41061;SDS011;26812;42.662;23.352;2022-08-05T10:12:53;4.10;;;3.00;;
41061;SDS011;26812;42.662;23.352;2022-08-05T10:20:33;2.63;;;2.42;;
41061;SDS011;26812;42.662;23.352;2022-08-05T10:23:00;4.18;;;3.17;;
41061;SDS011;26812;42.662;23.352;2022-08-05T10:25:26;4.70;;;3.00;;
41061;SDS011;26812;42.662;23.352;2022-08-05T10:27:52;5.90;;;3.55;;
41061;SDS011;26812;42.662;23.352;2022-08-05T10:30:18;5.30;;;3.22;;
41061;SDS011;26812;42.662;23.352;2022-08-05T10:32:45;4.22;;;3.10;;
41061;SDS011;26812;42.662;23.352;2022-08-05T10:35:11;5.05;;;3.40;;
41061;SDS011;26812;42.662;23.352;2022-08-05T10:37:37;3.72;;;3.13;;
41061;SDS011;26812;42.662;23.352;2022-08-05T10:40:03;3.47;;;3.17;;
41061;SDS011;26812;42.662;23.352;2022-08-05T10:42:34;4.43;;;3.33;;
41061;SDS011;26812;42.662;23.352;2022-08-05T10:45:05;4.88;;;2.92;;
41061;SDS011;26812;42.662;23.352;2022-08-05T10:47:31;3.85;;;3.30;;
41061;SDS011;26812;42.662;23.352;2022-08-05T10:55:10;4.65;;;3.28;;
41061;SDS011;26812;42.662;23.352;2022-08-05T10:57:37;4.00;;;3.33;;
41061;SDS011;26812;42.662;23.352;2022-08-05T11:00:15;4.35;;;3.30;;
41061;SDS011;26812;42.662;23.352;2022-08-05T11:05:31;3.58;;;3.28;;
41061;SDS011;26812;42.662;23.352;2022-08-05T11:08:07;4.13;;;3.33;;
41061;SDS011;26812;42.662;23.352;2022-08-05T11:10:35;3.42;;;3.10;;
41061;SDS011;26812;42.662;23.352;2022-08-05T11:13:05;3.72;;;3.42;;
41061;SDS011;26812;42.662;23.352;2022-08-05T11:15:36;4.72;;;3.22;;
41061;SDS011;26812;42.662;23.352;2022-08-05T11:20:54;4.43;;;3.50;;
41061;SDS011;26812;42.662;23.352;2022-08-05T11:24:06;4.25;;;3.42;;
41061;SDS011;26812;42.662;23.352;2022-08-05T11:28:41;4.32;;;3.30;;
41061;SDS011;26812;42.662;23.352;2022-08-05T11:33:35;4.60;;;3.58;;
41061;SDS011;26812;42.662;23.352;2022-08-05T11:36:18;6.50;;;3.40;;
41061;SDS011;26812;42.662;23.352;2022-08-05T11:46:28;3.38;;;3.05;;
41061;SDS011;26812;42.662;23.352;2022-08-05T11:51:19;3.53;;;3.30;;
41061;SDS011;26812;42.662;23.352;2022-08-05T11:53:45;3.80;;;3.50;;
41061;SDS011;26812;42.662;23.352;2022-08-05T11:56:12;4.25;;;3.53;;
41061;SDS011;26812;42.662;23.352;2022-08-05T11:58:38;3.63;;;3.33;;
41061;SDS011;26812;42.662;23.352;2022-08-05T12:01:09;4.07;;;3.25;;
41061;SDS011;26812;42.662;23.352;2022-08-05T12:03:48;3.83;;;3.47;;
41061;SDS011;26812;42.662;23.352;2022-08-05T12:06:25;3.90;;;3.50;;
41061;SDS011;26812;42.662;23.352;2022-08-05T12:08:55;3.88;;;3.58;;
41061;SDS011;26812;42.662;23.352;2022-08-05T12:13:54;4.13;;;3.65;;
41061;SDS011;26812;42.662;23.352;2022-08-05T12:16:26;4.30;;;3.30;;
41061;SDS011;26812;42.662;23.352;2022-08-05T12:18:58;6.93;;;3.53;;
41061;SDS011;26812;42.662;23.352;2022-08-05T12:21:25;4.15;;;3.65;;
41061;SDS011;26812;42.662;23.352;2022-08-05T12:28:59;4.10;;;3.70;;
41061;SDS011;26812;42.662;23.352;2022-08-05T12:31:25;3.88;;;3.58;;
41061;SDS011;26812;42.662;23.352;2022-08-05T12:33:50;3.30;;;3.00;;
41061;SDS011;26812;42.662;23.352;2022-08-05T12:36:18;4.85;;;3.47;;
41061;SDS011;26812;42.662;23.352;2022-08-05T12:38:45;3.95;;;3.63;;
41061;SDS011;26812;42.662;23.352;2022-08-05T12:41:11;3.97;;;3.60;;
41061;SDS011;26812;42.662;23.352;2022-08-05T12:43:55;3.90;;;3.60;;
41061;SDS011;26812;42.662;23.352;2022-08-05T12:46:23;4.30;;;3.90;;
41061;SDS011;26812;42.662;23.352;2022-08-05T12:51:51;4.35;;;3.58;;
41061;SDS011;26812;42.662;23.352;2022-08-05T12:56:50;4.38;;;3.80;;
41061;SDS011;26812;42.662;23.352;2022-08-05T12:59:18;3.65;;;3.35;;
41061;SDS011;26812;42.662;23.352;2022-08-05T13:01:58;3.47;;;3.22;;
41061;SDS011;26812;42.662;23.352;2022-08-05T13:04:30;3.40;;;3.10;;
41061;SDS011;26812;42.662;23.352;2022-08-05T13:06:58;3.92;;;3.63;;
41061;SDS011;26812;42.662;23.352;2022-08-05T13:09:31;4.38;;;3.70;;
41061;SDS011;26812;42.662;23.352;2022-08-05T13:12:04;3.90;;;3.25;;
41061;SDS011;26812;42.662;23.352;2022-08-05T13:14:35;4.00;;;3.60;;
41061;SDS011;26812;42.662;23.352;2022-08-05T13:17:06;3.75;;;3.38;;
41061;SDS011;26812;42.662;23.352;2022-08-05T13:19:41;3.65;;;3.35;;
41061;SDS011;26812;42.662;23.352;2022-08-05T13:22:21;4.78;;;3.50;;
41061;SDS011;26812;42.662;23.352;2022-08-05T13:24:49;3.97;;;3.63;;
41061;SDS011;26812;42.662;23.352;2022-08-05T13:27:24;5.10;;;3.42;;
41061;SDS011;26812;42.662;23.352;2022-08-05T13:29:50;4.70;;;3.67;;
41061;SDS011;26812;42.662;23.352;2022-08-05T13:32:15;5.63;;;3.95;;
41061;SDS011;26812;42.662;23.352;2022-08-05T13:34:41;5.35;;;3.38;;
41061;SDS011;26812;42.662;23.352;2022-08-05T13:37:06;3.90;;;3.60;;
41061;SDS011;26812;42.662;23.352;2022-08-05T13:39:31;5.20;;;3.70;;
41061;SDS011;26812;42.662;23.352;2022-08-05T13:41:57;3.80;;;3.50;;
41061;SDS011;26812;42.662;23.352;2022-08-05T13:44:22;3.70;;;3.15;;
41061;SDS011;26812;42.662;23.352;2022-08-05T13:46:48;3.53;;;3.10;;
41061;SDS011;26812;42.662;23.352;2022-08-05T13:49:13;3.60;;;3.30;;
41061;SDS011;26812;42.662;23.352;2022-08-05T13:51:39;3.72;;;3.20;;
41061;SDS011;26812;42.662;23.352;2022-08-05T13:54:06;3.90;;;3.50;;
41061;SDS011;26812;42.662;23.352;2022-08-05T13:56:31;6.03;;;3.95;;
41061;SDS011;26812;42.662;23.352;2022-08-05T13:58:57;3.75;;;3.45;;
41061;SDS011;26812;42.662;23.352;2022-08-05T14:01:23;3.95;;;3.65;;
41061;SDS011;26812;42.662;23.352;2022-08-05T14:03:48;4.10;;;3.67;;
41061;SDS011;26812;42.662;23.352;2022-08-05T14:06:33;4.30;;;3.50;;
41061;SDS011;26812;42.662;23.352;2022-08-05T14:08:59;3.85;;;3.50;;
41061;SDS011;26812;42.662;23.352;2022-08-05T14:11:25;4.10;;;2.97;;
41061;SDS011;26812;42.662;23.352;2022-08-05T14:13:52;3.85;;;3.28;;
41061;SDS011;26812;42.662;23.352;2022-08-05T14:16:17;3.70;;;3.40;;
41061;SDS011;26812;42.662;23.352;2022-08-05T14:18:43;4.50;;;3.10;;
41061;SDS011;26812;42.662;23.352;2022-08-05T14:21:09;3.05;;;2.85;;
41061;SDS011;26812;42.662;23.352;2022-08-05T14:23:34;5.10;;;3.83;;
41061;SDS011;26812;42.662;23.352;2022-08-05T14:26:00;4.03;;;3.40;;
41061;SDS011;26812;42.662;23.352;2022-08-05T14:28:26;4.03;;;3.63;;
41061;SDS011;26812;42.662;23.352;2022-08-05T14:30:52;3.17;;;2.97;;
41061;SDS011;26812;42.662;23.352;2022-08-05T14:33:17;3.40;;;3.10;;
41061;SDS011;26812;42.662;23.352;2022-08-05T14:35:42;3.58;;;3.28;;
41061;SDS011;26812;42.662;23.352;2022-08-05T14:38:08;3.58;;;2.80;;
41061;SDS011;26812;42.662;23.352;2022-08-05T14:40:33;3.38;;;3.08;;
41061;SDS011;26812;42.662;23.352;2022-08-05T14:42:58;4.57;;;2.80;;
41061;SDS011;26812;42.662;23.352;2022-08-05T14:45:24;3.30;;;3.00;;
41061;SDS011;26812;42.662;23.352;2022-08-05T14:47:49;5.15;;;2.60;;
41061;SDS011;26812;42.662;23.352;2022-08-05T14:50:15;3.95;;;3.25;;
41061;SDS011;26812;42.662;23.352;2022-08-05T14:52:41;2.90;;;2.70;;
41061;SDS011;26812;42.662;23.352;2022-08-05T14:55:06;3.85;;;3.00;;
41061;SDS011;26812;42.662;23.352;2022-08-05T14:57:32;3.00;;;2.67;;
41061;SDS011;26812;42.662;23.352;2022-08-05T14:59:58;3.35;;;3.05;;
41061;SDS011;26812;42.662;23.352;2022-08-05T15:02:23;3.47;;;3.17;;
41061;SDS011;26812;42.662;23.352;2022-08-05T15:04:48;3.38;;;3.08;;
41061;SDS011;26812;42.662;23.352;2022-08-05T15:07:14;5.55;;;3.20;;
41061;SDS011;26812;42.662;23.352;2022-08-05T15:09:39;4.43;;;3.90;;
41061;SDS011;26812;42.662;23.352;2022-08-05T15:12:05;5.88;;;3.42;;
41061;SDS011;26812;42.662;23.352;2022-08-05T15:14:30;3.08;;;2.78;;
41061;SDS011;26812;42.662;23.352;2022-08-05T15:16:56;3.70;;;3.40;;
41061;SDS011;26812;42.662;23.352;2022-08-05T15:19:22;3.13;;;2.90;;
41061;SDS011;26812;42.662;23.352;2022-08-05T15:21:48;3.30;;;3.05;;
41061;SDS011;26812;42.662;23.352;2022-08-05T15:24:14;3.72;;;3.03;;
41061;SDS011;26812;42.662;23.352;2022-08-05T15:26:39;3.90;;;3.30;;
41061;SDS011;26812;42.662;23.352;2022-08-05T15:29:04;3.42;;;3.13;;
41061;SDS011;26812;42.662;23.352;2022-08-05T15:31:30;5.80;;;3.20;;
41061;SDS011;26812;42.662;23.352;2022-08-05T15:33:56;3.90;;;3.60;;
41061;SDS011;26812;42.662;23.352;2022-08-05T15:36:21;7.25;;;3.25;;
41061;SDS011;26812;42.662;23.352;2022-08-05T15:38:46;3.83;;;3.35;;
41061;SDS011;26812;42.662;23.352;2022-08-05T15:41:12;3.92;;;3.08;;
41061;SDS011;26812;42.662;23.352;2022-08-05T15:43:38;5.78;;;3.70;;